Harvester, Missouri
Current Conditions -  °F | °C
As of 7:54 PM on Thursday 20 Nov 2014 (Local Time) from KSUS Reporting Station
Clear Clear  
Wind Chill: 25°   Ceiling: Unl
Heat Index: 25°   Visibility: 10mi
Dew Point: 18°   Wind: 0mph
Humidity: 75%   Direction: NA
Pressure: 30.28"   Gusts: NA
Location:  38.7493°N, 90.5423°W
Report Text: KSUS 210154Z 00000KT 10SM CLR M04/M08 A3028 RMK AO2 SLP265 T10391078
Loading
Personal Weather Stations






























Interactive Weather Map New forecast layout! Learn more

10-Day Weather Forecast

Advertisements
Track Severe Weather on mobile